Aérodrome :
LOGIN :

S'inscrire | Disclaimer

   EN    FR    IT 

 










Légende :    VFR   VFR Marginal   IFR   IFR Intensif   IFR Très Intensif
Visi : 
Plafond : 
>= 8 km
>= 3000ft
5 à 8 km
1000 à 3000 ft
1500m à 5 km
500 à 1000 ft
800 à 1500m
200 à 500 ft
< 800m
< 200 ft
Symboles :   Orages  Brouillard  Fortes neiges  Fortes précipitations  Vent > 20 kt
SIGMETs :   Divers  Orages  Givrage  Turbulence  Onde Orograph.  Cendres Volcan.






- Altitude de l'aérodrome : 48 ft
- Code IATA : PSR


LIBP - Abruzzo Pescara

DERNIER METAR :
  • 200420Z AUTO 27005KT 240V300 9999 NCD 20/08 Q1011

METARs EXPIRÉS :
  • 200350Z AUTO 24007KT 9999 NCD 19/09 Q1011
  • 200320Z AUTO 28003KT 220V320 9999 NCD 19/11 Q1011
  • 200250Z AUTO 19004KT 100V250 9999 NCD 20/09 Q1011
  • 200220Z AUTO VRB05KT 9999 NCD 20/09 Q1010
  • 200150Z AUTO 04004KT 360V100 9999 NCD 19/09 Q1010

TAF TAF LIBP
Valide du 20 à 00h jusqu'au 21 à 00h UTC


192300Z 2000/2024 23015KT 9999 FEW040
BECMG 2008/2011 09010KT



MET'MAP, la Météo Aéronautique d'un coup d'oeil ! - Copyright ORBIFLY Décembre 2007 - Disclaimer

ORBIFLY MET'MAP TEAM :

Programmation & Développement : Alexandra Zaïnal
Sur une idée originale de : Baudouin d'Aumeries
Assistance à la programmation : Marc-Olivier Méhu
Soutien technique & logistique : Manuel Goepfert

Contact : metmap@orbifly.com




SOURCES & CREDITS :

   NOAA